sensor_id;sensor_type;location;lat;lon;timestamp;P1;durP1;ratioP1;P2;durP2;ratioP2
47635;SDS011;33364;50.766;15.338;2022-09-30T00:00:19;6.32;;;3.28;;
47635;SDS011;33364;50.766;15.338;2022-09-30T00:03:04;4.60;;;2.63;;
47635;SDS011;33364;50.766;15.338;2022-09-30T00:05:30;3.88;;;2.95;;
47635;SDS011;33364;50.766;15.338;2022-09-30T00:07:55;5.70;;;3.78;;
47635;SDS011;33364;50.766;15.338;2022-09-30T00:10:21;6.72;;;4.43;;
47635;SDS011;33364;50.766;15.338;2022-09-30T00:12:47;5.57;;;3.72;;
47635;SDS011;33364;50.766;15.338;2022-09-30T00:15:12;4.95;;;3.42;;
47635;SDS011;33364;50.766;15.338;2022-09-30T00:17:38;5.82;;;3.83;;
47635;SDS011;33364;50.766;15.338;2022-09-30T00:20:04;6.47;;;3.72;;
47635;SDS011;33364;50.766;15.338;2022-09-30T00:22:30;5.18;;;3.05;;
47635;SDS011;33364;50.766;15.338;2022-09-30T00:24:55;7.80;;;3.58;;
47635;SDS011;33364;50.766;15.338;2022-09-30T00:27:21;7.30;;;3.60;;
47635;SDS011;33364;50.766;15.338;2022-09-30T00:29:47;4.63;;;2.78;;
47635;SDS011;33364;50.766;15.338;2022-09-30T00:32:12;5.00;;;2.92;;
47635;SDS011;33364;50.766;15.338;2022-09-30T00:34:38;7.05;;;4.07;;
47635;SDS011;33364;50.766;15.338;2022-09-30T00:37:04;5.15;;;2.78;;
47635;SDS011;33364;50.766;15.338;2022-09-30T00:39:30;3.25;;;2.55;;
47635;SDS011;33364;50.766;15.338;2022-09-30T00:41:57;4.75;;;2.75;;
47635;SDS011;33364;50.766;15.338;2022-09-30T00:50:14;4.90;;;2.88;;
47635;SDS011;33364;50.766;15.338;2022-09-30T00:52:45;11.98;;;4.30;;
47635;SDS011;33364;50.766;15.338;2022-09-30T00:55:22;5.78;;;2.83;;
47635;SDS011;33364;50.766;15.338;2022-09-30T00:58:11;7.75;;;3.22;;
47635;SDS011;33364;50.766;15.338;2022-09-30T01:00:42;7.60;;;3.03;;
47635;SDS011;33364;50.766;15.338;2022-09-30T01:03:07;6.80;;;3.13;;
47635;SDS011;33364;50.766;15.338;2022-09-30T01:05:33;7.38;;;3.47;;
47635;SDS011;33364;50.766;15.338;2022-09-30T01:07:59;9.70;;;3.58;;
47635;SDS011;33364;50.766;15.338;2022-09-30T01:10:28;9.15;;;4.00;;
47635;SDS011;33364;50.766;15.338;2022-09-30T01:12:54;13.73;;;4.82;;
47635;SDS011;33364;50.766;15.338;2022-09-30T01:15:22;14.48;;;5.63;;
47635;SDS011;33364;50.766;15.338;2022-09-30T01:18:15;10.38;;;4.18;;
47635;SDS011;33364;50.766;15.338;2022-09-30T01:23:28;12.93;;;5.03;;
47635;SDS011;33364;50.766;15.338;2022-09-30T01:31:01;7.85;;;3.40;;
47635;SDS011;33364;50.766;15.338;2022-09-30T01:36:23;7.28;;;3.22;;
47635;SDS011;33364;50.766;15.338;2022-09-30T01:39:14;4.78;;;2.90;;
47635;SDS011;33364;50.766;15.338;2022-09-30T01:42:09;3.53;;;2.10;;
47635;SDS011;33364;50.766;15.338;2022-09-30T01:44:56;4.07;;;2.10;;
47635;SDS011;33364;50.766;15.338;2022-09-30T01:47:28;3.13;;;2.00;;
47635;SDS011;33364;50.766;15.338;2022-09-30T01:50:05;4.00;;;2.33;;
47635;SDS011;33364;50.766;15.338;2022-09-30T01:55:48;3.92;;;2.20;;
47635;SDS011;33364;50.766;15.338;2022-09-30T02:01:01;3.42;;;2.20;;
47635;SDS011;33364;50.766;15.338;2022-09-30T02:03:41;3.55;;;1.92;;
47635;SDS011;33364;50.766;15.338;2022-09-30T02:06:18;3.13;;;2.00;;
47635;SDS011;33364;50.766;15.338;2022-09-30T02:11:37;2.40;;;1.70;;
47635;SDS011;33364;50.766;15.338;2022-09-30T02:14:18;5.10;;;1.80;;
47635;SDS011;33364;50.766;15.338;2022-09-30T02:16:56;40.67;;;10.98;;
47635;SDS011;33364;50.766;15.338;2022-09-30T02:19:32;40.45;;;10.13;;
47635;SDS011;33364;50.766;15.338;2022-09-30T02:22:05;17.35;;;5.32;;
47635;SDS011;33364;50.766;15.338;2022-09-30T02:24:34;3.78;;;1.50;;
47635;SDS011;33364;50.766;15.338;2022-09-30T02:27:01;2.72;;;1.80;;
47635;SDS011;33364;50.766;15.338;2022-09-30T02:29:38;2.75;;;1.75;;
47635;SDS011;33364;50.766;15.338;2022-09-30T02:32:12;6.18;;;1.70;;
47635;SDS011;33364;50.766;15.338;2022-09-30T02:34:46;2.13;;;1.30;;
47635;SDS011;33364;50.766;15.338;2022-09-30T02:42:34;63.00;;;16.27;;
47635;SDS011;33364;50.766;15.338;2022-09-30T02:45:05;10.48;;;3.90;;
47635;SDS011;33364;50.766;15.338;2022-09-30T02:58:16;2.60;;;1.52;;
47635;SDS011;33364;50.766;15.338;2022-09-30T03:00:45;2.95;;;2.00;;
47635;SDS011;33364;50.766;15.338;2022-09-30T03:03:15;3.40;;;1.98;;
47635;SDS011;33364;50.766;15.338;2022-09-30T03:05:45;101.85;;;28.48;;
47635;SDS011;33364;50.766;15.338;2022-09-30T03:08:14;8.45;;;3.72;;
47635;SDS011;33364;50.766;15.338;2022-09-30T03:10:40;4.65;;;3.13;;
47635;SDS011;33364;50.766;15.338;2022-09-30T03:18:29;6.35;;;2.97;;
47635;SDS011;33364;50.766;15.338;2022-09-30T03:29:18;3.85;;;1.63;;
47635;SDS011;33364;50.766;15.338;2022-09-30T03:37:11;7.80;;;2.80;;
47635;SDS011;33364;50.766;15.338;2022-09-30T03:39:53;31.83;;;9.77;;
47635;SDS011;33364;50.766;15.338;2022-09-30T03:42:25;5.13;;;2.33;;
47635;SDS011;33364;50.766;15.338;2022-09-30T03:45:03;3.90;;;2.30;;
47635;SDS011;33364;50.766;15.338;2022-09-30T03:47:50;2.85;;;1.90;;
47635;SDS011;33364;50.766;15.338;2022-09-30T03:50:20;3.60;;;1.35;;
47635;SDS011;33364;50.766;15.338;2022-09-30T03:52:48;2.42;;;2.00;;
47635;SDS011;33364;50.766;15.338;2022-09-30T03:55:15;1.95;;;1.60;;
47635;SDS011;33364;50.766;15.338;2022-09-30T03:57:43;4.65;;;2.28;;
47635;SDS011;33364;50.766;15.338;2022-09-30T04:00:10;52.75;;;14.50;;
47635;SDS011;33364;50.766;15.338;2022-09-30T04:02:37;20.92;;;5.60;;
47635;SDS011;33364;50.766;15.338;2022-09-30T04:05:03;4.72;;;1.90;;
47635;SDS011;33364;50.766;15.338;2022-09-30T04:07:29;7.18;;;2.80;;
47635;SDS011;33364;50.766;15.338;2022-09-30T04:09:55;9.23;;;3.80;;
47635;SDS011;33364;50.766;15.338;2022-09-30T04:12:21;3.70;;;2.60;;
47635;SDS011;33364;50.766;15.338;2022-09-30T04:14:47;7.57;;;2.72;;
47635;SDS011;33364;50.766;15.338;2022-09-30T04:17:13;6.63;;;4.30;;
47635;SDS011;33364;50.766;15.338;2022-09-30T04:19:39;7.38;;;5.13;;
47635;SDS011;33364;50.766;15.338;2022-09-30T04:22:05;8.43;;;4.75;;
47635;SDS011;33364;50.766;15.338;2022-09-30T04:24:32;6.80;;;3.72;;
47635;SDS011;33364;50.766;15.338;2022-09-30T04:26:57;22.05;;;8.32;;
47635;SDS011;33364;50.766;15.338;2022-09-30T04:29:23;13.98;;;5.05;;
47635;SDS011;33364;50.766;15.338;2022-09-30T04:31:49;3.60;;;2.65;;
47635;SDS011;33364;50.766;15.338;2022-09-30T04:34:14;3.72;;;2.75;;
47635;SDS011;33364;50.766;15.338;2022-09-30T04:36:39;1.98;;;1.50;;
47635;SDS011;33364;50.766;15.338;2022-09-30T04:39:05;3.00;;;1.80;;
47635;SDS011;33364;50.766;15.338;2022-09-30T04:41:31;1.90;;;1.58;;
47635;SDS011;33364;50.766;15.338;2022-09-30T04:43:58;2.67;;;1.73;;
47635;SDS011;33364;50.766;15.338;2022-09-30T04:46:30;2.15;;;1.77;;
47635;SDS011;33364;50.766;15.338;2022-09-30T04:48:57;4.70;;;2.63;;
47635;SDS011;33364;50.766;15.338;2022-09-30T04:51:22;11.38;;;3.45;;
47635;SDS011;33364;50.766;15.338;2022-09-30T04:53:48;3.28;;;1.67;;
47635;SDS011;33364;50.766;15.338;2022-09-30T04:56:14;2.88;;;1.55;;
47635;SDS011;33364;50.766;15.338;2022-09-30T04:58:41;3.60;;;1.77;;
47635;SDS011;33364;50.766;15.338;2022-09-30T05:01:08;6.28;;;2.80;;
47635;SDS011;33364;50.766;15.338;2022-09-30T05:03:35;4.50;;;2.30;;
47635;SDS011;33364;50.766;15.338;2022-09-30T05:06:01;3.17;;;2.17;;
47635;SDS011;33364;50.766;15.338;2022-09-30T05:08:28;2.95;;;1.85;;
47635;SDS011;33364;50.766;15.338;2022-09-30T05:10:57;2.72;;;1.92;;
47635;SDS011;33364;50.766;15.338;2022-09-30T05:13:24;2.72;;;2.20;;
47635;SDS011;33364;50.766;15.338;2022-09-30T05:15:54;3.58;;;2.25;;
47635;SDS011;33364;50.766;15.338;2022-09-30T05:18:19;3.88;;;2.30;;
47635;SDS011;33364;50.766;15.338;2022-09-30T05:20:47;62.58;;;18.20;;
47635;SDS011;33364;50.766;15.338;2022-09-30T05:23:13;26.25;;;7.93;;
47635;SDS011;33364;50.766;15.338;2022-09-30T05:25:39;6.15;;;3.15;;
47635;SDS011;33364;50.766;15.338;2022-09-30T05:28:05;6.88;;;2.33;;
47635;SDS011;33364;50.766;15.338;2022-09-30T05:30:30;6.78;;;2.42;;
47635;SDS011;33364;50.766;15.338;2022-09-30T05:32:56;6.40;;;2.75;;
47635;SDS011;33364;50.766;15.338;2022-09-30T05:35:21;4.65;;;2.70;;
47635;SDS011;33364;50.766;15.338;2022-09-30T05:37:47;4.55;;;2.22;;
47635;SDS011;33364;50.766;15.338;2022-09-30T05:40:12;3.03;;;1.63;;
47635;SDS011;33364;50.766;15.338;2022-09-30T05:42:38;2.95;;;2.05;;
47635;SDS011;33364;50.766;15.338;2022-09-30T05:45:04;3.22;;;2.00;;
47635;SDS011;33364;50.766;15.338;2022-09-30T05:47:31;3.35;;;2.10;;
47635;SDS011;33364;50.766;15.338;2022-09-30T05:49:57;4.45;;;2.25;;
47635;SDS011;33364;50.766;15.338;2022-09-30T05:52:23;5.45;;;2.72;;
47635;SDS011;33364;50.766;15.338;2022-09-30T05:54:48;3.00;;;1.95;;
47635;SDS011;33364;50.766;15.338;2022-09-30T05:57:14;38.15;;;11.77;;
47635;SDS011;33364;50.766;15.338;2022-09-30T05:59:40;5.75;;;3.35;;
47635;SDS011;33364;50.766;15.338;2022-09-30T06:02:07;3.60;;;2.25;;
47635;SDS011;33364;50.766;15.338;2022-09-30T06:04:33;2.75;;;2.33;;
47635;SDS011;33364;50.766;15.338;2022-09-30T06:06:59;3.03;;;2.03;;
47635;SDS011;33364;50.766;15.338;2022-09-30T06:09:24;2.97;;;1.77;;
47635;SDS011;33364;50.766;15.338;2022-09-30T06:11:50;6.05;;;2.00;;
47635;SDS011;33364;50.766;15.338;2022-09-30T06:14:16;5.35;;;2.03;;
47635;SDS011;33364;50.766;15.338;2022-09-30T06:16:44;13.73;;;4.57;;
47635;SDS011;33364;50.766;15.338;2022-09-30T06:19:10;8.13;;;3.15;;
47635;SDS011;33364;50.766;15.338;2022-09-30T06:21:35;34.70;;;10.52;;
47635;SDS011;33364;50.766;15.338;2022-09-30T06:24:01;8.02;;;3.13;;
47635;SDS011;33364;50.766;15.338;2022-09-30T06:26:27;23.48;;;7.68;;
47635;SDS011;33364;50.766;15.338;2022-09-30T06:28:52;12.32;;;5.38;;
47635;SDS011;33364;50.766;15.338;2022-09-30T06:31:18;6.53;;;2.70;;
47635;SDS011;33364;50.766;15.338;2022-09-30T06:33:44;4.72;;;1.92;;
47635;SDS011;33364;50.766;15.338;2022-09-30T06:36:11;3.92;;;2.28;;
47635;SDS011;33364;50.766;15.338;2022-09-30T06:38:36;3.42;;;2.53;;
47635;SDS011;33364;50.766;15.338;2022-09-30T06:41:04;6.20;;;4.15;;
47635;SDS011;33364;50.766;15.338;2022-09-30T06:43:30;8.68;;;4.75;;
47635;SDS011;33364;50.766;15.338;2022-09-30T06:45:57;11.40;;;5.97;;
47635;SDS011;33364;50.766;15.338;2022-09-30T06:48:22;16.80;;;8.00;;
47635;SDS011;33364;50.766;15.338;2022-09-30T06:50:48;24.77;;;11.07;;
47635;SDS011;33364;50.766;15.338;2022-09-30T06:53:13;22.15;;;10.80;;
47635;SDS011;33364;50.766;15.338;2022-09-30T06:55:39;11.60;;;6.72;;
47635;SDS011;33364;50.766;15.338;2022-09-30T06:58:06;10.85;;;5.70;;
47635;SDS011;33364;50.766;15.338;2022-09-30T07:00:33;8.30;;;4.93;;
47635;SDS011;33364;50.766;15.338;2022-09-30T07:03:00;9.32;;;5.57;;
47635;SDS011;33364;50.766;15.338;2022-09-30T07:05:26;10.73;;;6.38;;
47635;SDS011;33364;50.766;15.338;2022-09-30T07:07:53;26.70;;;15.63;;
47635;SDS011;33364;50.766;15.338;2022-09-30T07:10:19;69.72;;;25.38;;
47635;SDS011;33364;50.766;15.338;2022-09-30T07:12:49;25.48;;;11.48;;
47635;SDS011;33364;50.766;15.338;2022-09-30T07:15:15;34.30;;;12.30;;
47635;SDS011;33364;50.766;15.338;2022-09-30T07:17:41;16.42;;;7.90;;
47635;SDS011;33364;50.766;15.338;2022-09-30T07:20:08;11.02;;;6.25;;
47635;SDS011;33364;50.766;15.338;2022-09-30T07:22:34;19.52;;;8.48;;
47635;SDS011;33364;50.766;15.338;2022-09-30T07:25:00;7.45;;;4.88;;
47635;SDS011;33364;50.766;15.338;2022-09-30T07:27:28;10.52;;;6.32;;
47635;SDS011;33364;50.766;15.338;2022-09-30T07:29:57;8.93;;;5.03;;
47635;SDS011;33364;50.766;15.338;2022-09-30T07:32:23;12.88;;;5.50;;
47635;SDS011;33364;50.766;15.338;2022-09-30T07:34:49;6.22;;;4.75;;
47635;SDS011;33364;50.766;15.338;2022-09-30T07:37:16;34.55;;;20.80;;
47635;SDS011;33364;50.766;15.338;2022-09-30T07:39:44;38.65;;;24.27;;
47635;SDS011;33364;50.766;15.338;2022-09-30T07:42:15;38.15;;;22.17;;
47635;SDS011;33364;50.766;15.338;2022-09-30T07:44:44;28.08;;;15.80;;
47635;SDS011;33364;50.766;15.338;2022-09-30T07:47:10;26.38;;;13.40;;
47635;SDS011;33364;50.766;15.338;2022-09-30T07:49:37;13.05;;;7.15;;
47635;SDS011;33364;50.766;15.338;2022-09-30T07:52:03;9.02;;;5.53;;
47635;SDS011;33364;50.766;15.338;2022-09-30T07:54:30;6.43;;;5.07;;
47635;SDS011;33364;50.766;15.338;2022-09-30T07:56:57;10.15;;;4.97;;
47635;SDS011;33364;50.766;15.338;2022-09-30T07:59:24;5.22;;;3.67;;
47635;SDS011;33364;50.766;15.338;2022-09-30T08:01:51;10.68;;;4.38;;
47635;SDS011;33364;50.766;15.338;2022-09-30T08:04:18;6.85;;;3.78;;
47635;SDS011;33364;50.766;15.338;2022-09-30T08:06:47;6.22;;;3.83;;
47635;SDS011;33364;50.766;15.338;2022-09-30T08:09:15;7.88;;;4.05;;
47635;SDS011;33364;50.766;15.338;2022-09-30T08:11:42;7.57;;;3.50;;
47635;SDS011;33364;50.766;15.338;2022-09-30T08:14:19;7.25;;;4.07;;
47635;SDS011;33364;50.766;15.338;2022-09-30T08:16:49;42.60;;;12.70;;
47635;SDS011;33364;50.766;15.338;2022-09-30T08:19:16;27.15;;;9.23;;
47635;SDS011;33364;50.766;15.338;2022-09-30T08:21:44;25.05;;;8.65;;
47635;SDS011;33364;50.766;15.338;2022-09-30T08:24:11;12.20;;;6.80;;
47635;SDS011;33364;50.766;15.338;2022-09-30T08:26:37;15.30;;;6.10;;
47635;SDS011;33364;50.766;15.338;2022-09-30T08:29:02;11.57;;;9.07;;
47635;SDS011;33364;50.766;15.338;2022-09-30T08:31:28;6.10;;;4.32;;
47635;SDS011;33364;50.766;15.338;2022-09-30T08:33:54;10.45;;;5.53;;
47635;SDS011;33364;50.766;15.338;2022-09-30T08:36:20;8.32;;;4.80;;
47635;SDS011;33364;50.766;15.338;2022-09-30T08:38:50;8.95;;;4.28;;
47635;SDS011;33364;50.766;15.338;2022-09-30T08:47:09;11.13;;;4.35;;
47635;SDS011;33364;50.766;15.338;2022-09-30T08:49:58;10.98;;;5.30;;
47635;SDS011;33364;50.766;15.338;2022-09-30T08:52:33;9.70;;;4.95;;
47635;SDS011;33364;50.766;15.338;2022-09-30T08:55:02;13.40;;;4.88;;
47635;SDS011;33364;50.766;15.338;2022-09-30T08:57:37;11.50;;;3.63;;
47635;SDS011;33364;50.766;15.338;2022-09-30T09:00:06;9.77;;;4.03;;
47635;SDS011;33364;50.766;15.338;2022-09-30T09:02:45;9.75;;;4.60;;
47635;SDS011;33364;50.766;15.338;2022-09-30T09:05:16;5.72;;;2.40;;
47635;SDS011;33364;50.766;15.338;2022-09-30T09:10:39;41.35;;;11.38;;
47635;SDS011;33364;50.766;15.338;2022-09-30T09:13:29;47.60;;;13.23;;
47635;SDS011;33364;50.766;15.338;2022-09-30T09:16:11;9.82;;;4.72;;
47635;SDS011;33364;50.766;15.338;2022-09-30T09:18:50;3.65;;;2.50;;
47635;SDS011;33364;50.766;15.338;2022-09-30T09:21:28;4.50;;;2.40;;
47635;SDS011;33364;50.766;15.338;2022-09-30T09:23:56;3.40;;;2.15;;
47635;SDS011;33364;50.766;15.338;2022-09-30T09:26:29;3.50;;;1.98;;
47635;SDS011;33364;50.766;15.338;2022-09-30T09:31:51;8.07;;;2.90;;
47635;SDS011;33364;50.766;15.338;2022-09-30T09:34:23;2.60;;;1.67;;
47635;SDS011;33364;50.766;15.338;2022-09-30T09:39:41;2.15;;;1.50;;
47635;SDS011;33364;50.766;15.338;2022-09-30T09:44:51;13.15;;;5.75;;
47635;SDS011;33364;50.766;15.338;2022-09-30T09:47:24;1.98;;;1.25;;
47635;SDS011;33364;50.766;15.338;2022-09-30T09:50:12;2.80;;;1.10;;
47635;SDS011;33364;50.766;15.338;2022-09-30T09:52:50;2.75;;;0.90;;
47635;SDS011;33364;50.766;15.338;2022-09-30T09:55:27;1.48;;;1.02;;
47635;SDS011;33364;50.766;15.338;2022-09-30T09:58:06;2.20;;;1.15;;
47635;SDS011;33364;50.766;15.338;2022-09-30T10:00:34;2.80;;;1.20;;
47635;SDS011;33364;50.766;15.338;2022-09-30T10:03:19;3.63;;;2.15;;
47635;SDS011;33364;50.766;15.338;2022-09-30T10:06:08;2.83;;;1.95;;
47635;SDS011;33364;50.766;15.338;2022-09-30T10:08:35;3.08;;;1.80;;
47635;SDS011;33364;50.766;15.338;2022-09-30T10:11:05;2.95;;;1.70;;
47635;SDS011;33364;50.766;15.338;2022-09-30T10:16:21;1.52;;;1.10;;
47635;SDS011;33364;50.766;15.338;2022-09-30T10:18:57;2.42;;;1.73;;
47635;SDS011;33364;50.766;15.338;2022-09-30T10:21:24;4.60;;;3.00;;
47635;SDS011;33364;50.766;15.338;2022-09-30T10:23:52;4.65;;;3.05;;
47635;SDS011;33364;50.766;15.338;2022-09-30T10:34:26;9.38;;;5.57;;
47635;SDS011;33364;50.766;15.338;2022-09-30T10:36:52;3.92;;;2.78;;
47635;SDS011;33364;50.766;15.338;2022-09-30T10:39:21;4.55;;;3.10;;
47635;SDS011;33364;50.766;15.338;2022-09-30T10:42:09;2.45;;;1.70;;
47635;SDS011;33364;50.766;15.338;2022-09-30T10:44:59;2.95;;;1.88;;
47635;SDS011;33364;50.766;15.338;2022-09-30T10:47:30;4.43;;;2.97;;
47635;SDS011;33364;50.766;15.338;2022-09-30T10:50:04;2.63;;;1.50;;
47635;SDS011;33364;50.766;15.338;2022-09-30T10:52:33;3.90;;;2.85;;
47635;SDS011;33364;50.766;15.338;2022-09-30T10:57:49;4.13;;;3.45;;
47635;SDS011;33364;50.766;15.338;2022-09-30T11:00:23;2.38;;;1.90;;
47635;SDS011;33364;50.766;15.338;2022-09-30T11:03:00;2.13;;;1.88;;
47635;SDS011;33364;50.766;15.338;2022-09-30T11:05:44;2.22;;;1.40;;
47635;SDS011;33364;50.766;15.338;2022-09-30T11:11:12;7.47;;;5.10;;
47635;SDS011;33364;50.766;15.338;2022-09-30T11:13:47;5.47;;;3.78;;
47635;SDS011;33364;50.766;15.338;2022-09-30T11:16:58;16.55;;;11.18;;
47635;SDS011;33364;50.766;15.338;2022-09-30T11:19:26;12.70;;;8.82;;
47635;SDS011;33364;50.766;15.338;2022-09-30T11:48:57;3.17;;;2.08;;
47635;SDS011;33364;50.766;15.338;2022-09-30T11:59:42;5.45;;;4.05;;
47635;SDS011;33364;50.766;15.338;2022-09-30T12:02:28;2.88;;;2.00;;
47635;SDS011;33364;50.766;15.338;2022-09-30T12:04:57;3.33;;;2.30;;
47635;SDS011;33364;50.766;15.338;2022-09-30T12:07:33;2.50;;;1.60;;
47635;SDS011;33364;50.766;15.338;2022-09-30T12:10:15;5.72;;;2.15;;
47635;SDS011;33364;50.766;15.338;2022-09-30T12:12:46;3.38;;;1.95;;
47635;SDS011;33364;50.766;15.338;2022-09-30T12:15:16;4.72;;;1.55;;
47635;SDS011;33364;50.766;15.338;2022-09-30T12:17:46;1.90;;;1.33;;
47635;SDS011;33364;50.766;15.338;2022-09-30T12:20:21;3.63;;;1.55;;
47635;SDS011;33364;50.766;15.338;2022-09-30T12:22:56;2.28;;;1.38;;
47635;SDS011;33364;50.766;15.338;2022-09-30T12:25:45;2.78;;;1.60;;
47635;SDS011;33364;50.766;15.338;2022-09-30T12:33:58;3.85;;;1.90;;
47635;SDS011;33364;50.766;15.338;2022-09-30T12:42:20;3.85;;;2.70;;
47635;SDS011;33364;50.766;15.338;2022-09-30T12:47:55;5.40;;;3.40;;
47635;SDS011;33364;50.766;15.338;2022-09-30T12:50:28;4.07;;;2.25;;
47635;SDS011;33364;50.766;15.338;2022-09-30T12:53:07;4.15;;;2.50;;
47635;SDS011;33364;50.766;15.338;2022-09-30T12:55:39;8.85;;;3.15;;
47635;SDS011;33364;50.766;15.338;2022-09-30T12:58:13;4.60;;;2.55;;
47635;SDS011;33364;50.766;15.338;2022-09-30T13:00:56;4.97;;;2.90;;
47635;SDS011;33364;50.766;15.338;2022-09-30T13:03:24;8.13;;;5.22;;
47635;SDS011;33364;50.766;15.338;2022-09-30T13:05:55;4.82;;;3.97;;
47635;SDS011;33364;50.766;15.338;2022-09-30T13:08:36;7.43;;;4.90;;
47635;SDS011;33364;50.766;15.338;2022-09-30T13:11:27;7.88;;;5.03;;
47635;SDS011;33364;50.766;15.338;2022-09-30T13:14:01;9.05;;;7.32;;
47635;SDS011;33364;50.766;15.338;2022-09-30T13:43:20;12.80;;;8.38;;
47635;SDS011;33364;50.766;15.338;2022-09-30T13:45:52;10.32;;;6.22;;
47635;SDS011;33364;50.766;15.338;2022-09-30T13:48:29;11.75;;;8.48;;
47635;SDS011;33364;50.766;15.338;2022-09-30T13:50:59;6.25;;;3.80;;
47635;SDS011;33364;50.766;15.338;2022-09-30T13:53:35;7.93;;;4.03;;
47635;SDS011;33364;50.766;15.338;2022-09-30T13:56:47;6.55;;;5.80;;
47635;SDS011;33364;50.766;15.338;2022-09-30T14:01:49;4.70;;;2.50;;
47635;SDS011;33364;50.766;15.338;2022-09-30T14:13:09;9.95;;;4.20;;
47635;SDS011;33364;50.766;15.338;2022-09-30T14:18:19;10.07;;;4.38;;
47635;SDS011;33364;50.766;15.338;2022-09-30T14:23:31;5.40;;;3.53;;
47635;SDS011;33364;50.766;15.338;2022-09-30T14:26:19;6.65;;;3.65;;
47635;SDS011;33364;50.766;15.338;2022-09-30T14:29:14;4.57;;;3.10;;
47635;SDS011;33364;50.766;15.338;2022-09-30T14:31:48;14.98;;;6.00;;
47635;SDS011;33364;50.766;15.338;2022-09-30T14:34:14;9.15;;;4.80;;
47635;SDS011;33364;50.766;15.338;2022-09-30T14:36:41;8.88;;;3.17;;
47635;SDS011;33364;50.766;15.338;2022-09-30T14:39:15;7.68;;;5.10;;
47635;SDS011;33364;50.766;15.338;2022-09-30T14:41:49;4.47;;;3.13;;
47635;SDS011;33364;50.766;15.338;2022-09-30T14:44:17;4.78;;;3.10;;
47635;SDS011;33364;50.766;15.338;2022-09-30T14:46:44;5.00;;;3.15;;
47635;SDS011;33364;50.766;15.338;2022-09-30T14:49:13;7.28;;;2.85;;
47635;SDS011;33364;50.766;15.338;2022-09-30T14:51:44;3.33;;;1.98;;
47635;SDS011;33364;50.766;15.338;2022-09-30T14:54:21;5.30;;;3.47;;
47635;SDS011;33364;50.766;15.338;2022-09-30T14:56:49;9.68;;;3.88;;
47635;SDS011;33364;50.766;15.338;2022-09-30T14:59:19;18.23;;;6.45;;
47635;SDS011;33364;50.766;15.338;2022-09-30T15:01:47;61.53;;;18.42;;
47635;SDS011;33364;50.766;15.338;2022-09-30T15:04:21;9.73;;;4.05;;
47635;SDS011;33364;50.766;15.338;2022-09-30T15:06:50;21.70;;;9.75;;
47635;SDS011;33364;50.766;15.338;2022-09-30T15:14:49;12.55;;;6.90;;
47635;SDS011;33364;50.766;15.338;2022-09-30T15:17:18;4.53;;;2.90;;
47635;SDS011;33364;50.766;15.338;2022-09-30T15:19:45;5.05;;;2.83;;
47635;SDS011;33364;50.766;15.338;2022-09-30T15:22:11;4.38;;;2.70;;
47635;SDS011;33364;50.766;15.338;2022-09-30T15:24:38;3.53;;;2.17;;
47635;SDS011;33364;50.766;15.338;2022-09-30T15:27:06;6.38;;;3.03;;
47635;SDS011;33364;50.766;15.338;2022-09-30T15:29:56;6.35;;;4.60;;
47635;SDS011;33364;50.766;15.338;2022-09-30T15:32:25;59.95;;;19.08;;
47635;SDS011;33364;50.766;15.338;2022-09-30T15:34:54;15.23;;;6.20;;
47635;SDS011;33364;50.766;15.338;2022-09-30T15:37:25;10.90;;;4.72;;
47635;SDS011;33364;50.766;15.338;2022-09-30T15:42:43;5.45;;;2.85;;
47635;SDS011;33364;50.766;15.338;2022-09-30T15:45:32;4.72;;;2.47;;
47635;SDS011;33364;50.766;15.338;2022-09-30T15:48:01;3.13;;;2.58;;
47635;SDS011;33364;50.766;15.338;2022-09-30T15:50:43;6.82;;;4.68;;
47635;SDS011;33364;50.766;15.338;2022-09-30T15:53:17;12.00;;;8.25;;
47635;SDS011;33364;50.766;15.338;2022-09-30T15:55:44;46.58;;;16.42;;
47635;SDS011;33364;50.766;15.338;2022-09-30T16:04:01;57.45;;;25.58;;
47635;SDS011;33364;50.766;15.338;2022-09-30T16:09:17;25.02;;;14.27;;
47635;SDS011;33364;50.766;15.338;2022-09-30T16:14:27;18.75;;;11.48;;
47635;SDS011;33364;50.766;15.338;2022-09-30T16:16:57;34.30;;;19.60;;
47635;SDS011;33364;50.766;15.338;2022-09-30T16:19:25;18.27;;;10.45;;
47635;SDS011;33364;50.766;15.338;2022-09-30T16:21:52;14.52;;;7.70;;
47635;SDS011;33364;50.766;15.338;2022-09-30T16:26:56;11.48;;;4.75;;
47635;SDS011;33364;50.766;15.338;2022-09-30T16:29:25;39.55;;;16.92;;
47635;SDS011;33364;50.766;15.338;2022-09-30T16:31:52;44.38;;;19.23;;
47635;SDS011;33364;50.766;15.338;2022-09-30T16:34:27;45.35;;;21.92;;
47635;SDS011;33364;50.766;15.338;2022-09-30T16:36:54;70.68;;;32.33;;
47635;SDS011;33364;50.766;15.338;2022-09-30T16:39:29;26.20;;;11.80;;
47635;SDS011;33364;50.766;15.338;2022-09-30T16:41:55;19.58;;;11.10;;
47635;SDS011;33364;50.766;15.338;2022-09-30T16:44:20;63.55;;;29.67;;
47635;SDS011;33364;50.766;15.338;2022-09-30T16:46:48;34.72;;;19.83;;
47635;SDS011;33364;50.766;15.338;2022-09-30T16:49:14;27.08;;;15.85;;
47635;SDS011;33364;50.766;15.338;2022-09-30T16:51:41;21.77;;;13.23;;
47635;SDS011;33364;50.766;15.338;2022-09-30T16:54:07;25.80;;;12.40;;
47635;SDS011;33364;50.766;15.338;2022-09-30T16:56:33;13.25;;;8.52;;
47635;SDS011;33364;50.766;15.338;2022-09-30T16:58:59;24.95;;;12.57;;
47635;SDS011;33364;50.766;15.338;2022-09-30T17:01:25;19.08;;;11.38;;
47635;SDS011;33364;50.766;15.338;2022-09-30T17:03:51;21.52;;;13.15;;
47635;SDS011;33364;50.766;15.338;2022-09-30T17:06:19;26.42;;;15.70;;
47635;SDS011;33364;50.766;15.338;2022-09-30T17:08:50;18.08;;;10.15;;
47635;SDS011;33364;50.766;15.338;2022-09-30T17:11:18;15.70;;;9.80;;
47635;SDS011;33364;50.766;15.338;2022-09-30T17:13:44;16.33;;;9.75;;
47635;SDS011;33364;50.766;15.338;2022-09-30T17:16:10;13.70;;;9.25;;
47635;SDS011;33364;50.766;15.338;2022-09-30T17:18:37;12.43;;;9.35;;
47635;SDS011;33364;50.766;15.338;2022-09-30T17:21:02;12.85;;;9.45;;
47635;SDS011;33364;50.766;15.338;2022-09-30T17:23:28;14.90;;;9.85;;
47635;SDS011;33364;50.766;15.338;2022-09-30T17:25:54;21.65;;;14.77;;
47635;SDS011;33364;50.766;15.338;2022-09-30T17:28:20;18.80;;;13.35;;
47635;SDS011;33364;50.766;15.338;2022-09-30T17:30:46;10.55;;;7.95;;
47635;SDS011;33364;50.766;15.338;2022-09-30T17:33:14;13.30;;;6.60;;
47635;SDS011;33364;50.766;15.338;2022-09-30T17:35:40;11.55;;;7.13;;
47635;SDS011;33364;50.766;15.338;2022-09-30T17:38:09;9.57;;;7.28;;
47635;SDS011;33364;50.766;15.338;2022-09-30T17:40:36;15.68;;;7.97;;
47635;SDS011;33364;50.766;15.338;2022-09-30T17:43:20;11.13;;;7.97;;
47635;SDS011;33364;50.766;15.338;2022-09-30T17:45:48;11.77;;;8.70;;
47635;SDS011;33364;50.766;15.338;2022-09-30T17:48:19;14.45;;;9.50;;
47635;SDS011;33364;50.766;15.338;2022-09-30T17:50:46;22.45;;;11.38;;
47635;SDS011;33364;50.766;15.338;2022-09-30T17:53:14;25.73;;;13.73;;
47635;SDS011;33364;50.766;15.338;2022-09-30T17:55:44;20.02;;;9.73;;
47635;SDS011;33364;50.766;15.338;2022-09-30T17:58:12;29.70;;;14.93;;
47635;SDS011;33364;50.766;15.338;2022-09-30T18:00:39;18.95;;;11.43;;
47635;SDS011;33364;50.766;15.338;2022-09-30T18:03:05;22.70;;;11.27;;
47635;SDS011;33364;50.766;15.338;2022-09-30T18:05:32;21.38;;;12.70;;
47635;SDS011;33364;50.766;15.338;2022-09-30T18:07:58;15.82;;;10.60;;
47635;SDS011;33364;50.766;15.338;2022-09-30T18:10:24;19.52;;;13.13;;
47635;SDS011;33364;50.766;15.338;2022-09-30T18:12:51;18.98;;;9.80;;
47635;SDS011;33364;50.766;15.338;2022-09-30T18:15:18;12.15;;;7.38;;